sensor_id;sensor_type;location;lat;lon;timestamp;P1;durP1;ratioP1;P2;durP2;ratioP2
74788;SDS011;63313;48.258;12.518;2023-08-24T00:04:30;8.67;;;7.6800000000000015;;
74788;SDS011;63313;48.258;12.518;2023-08-24T00:09:57;10.57;;;8.02;;
74788;SDS011;63313;48.258;12.518;2023-08-24T00:15:24;13.87;;;9.23;;
74788;SDS011;63313;48.258;12.518;2023-08-24T00:20:51;10.99;;;8.69;;
74788;SDS011;63313;48.258;12.518;2023-08-24T00:26:18;11.330000000000002;;;7.890000000000001;;
74788;SDS011;63313;48.258;12.518;2023-08-24T00:31:45;14.39;;;8.45;;
74788;SDS011;63313;48.258;12.518;2023-08-24T00:37:12;11.860000000000001;;;8.66;;
74788;SDS011;63313;48.258;12.518;2023-08-24T00:42:40;9.469999999999999;;;6.85;;
74788;SDS011;63313;48.258;12.518;2023-08-24T00:48:07;9.860000000000001;;;7.05;;
74788;SDS011;63313;48.258;12.518;2023-08-24T00:53:34;9.61;;;7.119999999999999;;
74788;SDS011;63313;48.258;12.518;2023-08-24T00:59:02;8.79;;;6.710000000000001;;
74788;SDS011;63313;48.258;12.518;2023-08-24T01:04:29;11.559999999999999;;;7.650000000000001;;
74788;SDS011;63313;48.258;12.518;2023-08-24T01:09:56;10.919999999999998;;;7.890000000000001;;
74788;SDS011;63313;48.258;12.518;2023-08-24T01:15:25;9.379999999999999;;;7.67;;
74788;SDS011;63313;48.258;12.518;2023-08-24T01:20:53;10.44;;;9.2;;
74788;SDS011;63313;48.258;12.518;2023-08-24T01:26:21;11.28;;;8.73;;
74788;SDS011;63313;48.258;12.518;2023-08-24T01:31:48;11.15;;;8.32;;
74788;SDS011;63313;48.258;12.518;2023-08-24T01:37:16;14.1;;;8.129999999999999;;
74788;SDS011;63313;48.258;12.518;2023-08-24T01:42:45;8.66;;;7.330000000000001;;
74788;SDS011;63313;48.258;12.518;2023-08-24T01:48:15;11.48;;;8.05;;
74788;SDS011;63313;48.258;12.518;2023-08-24T01:53:43;8.84;;;7.45;;
74788;SDS011;63313;48.258;12.518;2023-08-24T01:59:10;10.16;;;8.12;;
74788;SDS011;63313;48.258;12.518;2023-08-24T02:04:37;13.139999999999997;;;7.62;;
74788;SDS011;63313;48.258;12.518;2023-08-24T02:10:05;11.77;;;8.84;;
74788;SDS011;63313;48.258;12.518;2023-08-24T02:15:32;10.25;;;8.98;;
74788;SDS011;63313;48.258;12.518;2023-08-24T02:20:59;15.220000000000002;;;8.870000000000001;;
74788;SDS011;63313;48.258;12.518;2023-08-24T02:26:26;11.049999999999999;;;7.529999999999999;;
74788;SDS011;63313;48.258;12.518;2023-08-24T02:31:53;12.53;;;8.64;;
74788;SDS011;63313;48.258;12.518;2023-08-24T02:37:20;9.779999999999998;;;7.290000000000001;;
74788;SDS011;63313;48.258;12.518;2023-08-24T02:42:47;13.830000000000002;;;8.73;;
74788;SDS011;63313;48.258;12.518;2023-08-24T02:48:15;11.15;;;7.62;;
74788;SDS011;63313;48.258;12.518;2023-08-24T02:53:42;11.799999999999999;;;7.610000000000001;;
74788;SDS011;63313;48.258;12.518;2023-08-24T02:59:09;10.34;;;7.67;;
74788;SDS011;63313;48.258;12.518;2023-08-24T03:04:36;14.469999999999999;;;7.62;;
74788;SDS011;63313;48.258;12.518;2023-08-24T03:10:03;12.79;;;7.840000000000001;;
74788;SDS011;63313;48.258;12.518;2023-08-24T03:15:30;14.11;;;7.87;;
74788;SDS011;63313;48.258;12.518;2023-08-24T03:20:58;8.49;;;7.08;;
74788;SDS011;63313;48.258;12.518;2023-08-24T03:26:25;13.5;;;8.2;;
74788;SDS011;63313;48.258;12.518;2023-08-24T03:31:52;12.51;;;8.889999999999999;;
74788;SDS011;63313;48.258;12.518;2023-08-24T03:37:19;8.64;;;7.65;;
74788;SDS011;63313;48.258;12.518;2023-08-24T03:42:46;11.01;;;7.7700000000000005;;
74788;SDS011;63313;48.258;12.518;2023-08-24T03:48:13;8.100000000000001;;;7.159999999999999;;
74788;SDS011;63313;48.258;12.518;2023-08-24T03:53:40;11.8;;;7.959999999999999;;
74788;SDS011;63313;48.258;12.518;2023-08-24T03:59:07;9.620000000000001;;;8.2;;
74788;SDS011;63313;48.258;12.518;2023-08-24T04:04:34;10.76;;;7.6;;
74788;SDS011;63313;48.258;12.518;2023-08-24T04:10:02;14.36;;;7.68;;
74788;SDS011;63313;48.258;12.518;2023-08-24T04:15:29;8.83;;;7.489999999999999;;
74788;SDS011;63313;48.258;12.518;2023-08-24T04:20:56;10.620000000000001;;;7.029999999999999;;
74788;SDS011;63313;48.258;12.518;2023-08-24T04:26:23;11.85;;;7.18;;
74788;SDS011;63313;48.258;12.518;2023-08-24T04:31:50;10.83;;;7.359999999999999;;
74788;SDS011;63313;48.258;12.518;2023-08-24T04:37:17;11.77;;;7.140000000000001;;
74788;SDS011;63313;48.258;12.518;2023-08-24T04:42:44;13.49;;;7.37;;
74788;SDS011;63313;48.258;12.518;2023-08-24T04:48:11;10.85;;;7.1899999999999995;;
74788;SDS011;63313;48.258;12.518;2023-08-24T04:53:38;9.4;;;7.33;;
74788;SDS011;63313;48.258;12.518;2023-08-24T04:59:06;8.870000000000001;;;6.909999999999999;;
74788;SDS011;63313;48.258;12.518;2023-08-24T05:04:33;12.02;;;6.94;;
74788;SDS011;63313;48.258;12.518;2023-08-24T05:10:00;9.819999999999999;;;6.540000000000001;;
74788;SDS011;63313;48.258;12.518;2023-08-24T05:15:27;13.64;;;6.9799999999999995;;
74788;SDS011;63313;48.258;12.518;2023-08-24T05:20:54;9.919999999999998;;;7.43;;
74788;SDS011;63313;48.258;12.518;2023-08-24T05:26:21;11.51;;;7.13;;
74788;SDS011;63313;48.258;12.518;2023-08-24T05:31:48;14.520000000000001;;;7.570000000000002;;
74788;SDS011;63313;48.258;12.518;2023-08-24T05:37:16;10.0;;;7.38;;
74788;SDS011;63313;48.258;12.518;2023-08-24T05:42:43;13.48;;;7.2;;
74788;SDS011;63313;48.258;12.518;2023-08-24T05:48:10;11.23;;;8.349999999999998;;
74788;SDS011;63313;48.258;12.518;2023-08-24T05:53:37;9.16;;;7.43;;
74788;SDS011;63313;48.258;12.518;2023-08-24T05:59:04;9.970000000000002;;;7.7;;
74788;SDS011;63313;48.258;12.518;2023-08-24T06:04:31;12.99;;;9.030000000000001;;
74788;SDS011;63313;48.258;12.518;2023-08-24T06:09:58;14.4;;;8.25;;
74788;SDS011;63313;48.258;12.518;2023-08-24T06:15:25;14.309999999999999;;;8.5;;
74788;SDS011;63313;48.258;12.518;2023-08-24T06:20:53;16.050000000000004;;;8.43;;
74788;SDS011;63313;48.258;12.518;2023-08-24T06:26:20;41.7;;;17.990000000000002;;
74788;SDS011;63313;48.258;12.518;2023-08-24T06:31:47;55.30999999999999;;;34.49999999999999;;
74788;SDS011;63313;48.258;12.518;2023-08-24T06:37:14;34.35;;;19.54;;
74788;SDS011;63313;48.258;12.518;2023-08-24T06:42:41;27.830000000000002;;;15.889999999999997;;
74788;SDS011;63313;48.258;12.518;2023-08-24T06:48:08;20.75;;;13.37;;
74788;SDS011;63313;48.258;12.518;2023-08-24T06:53:35;24.57;;;13.610000000000003;;
74788;SDS011;63313;48.258;12.518;2023-08-24T06:59:02;15.35;;;11.11;;
74788;SDS011;63313;48.258;12.518;2023-08-24T07:04:29;17.630000000000003;;;11.41;;
74788;SDS011;63313;48.258;12.518;2023-08-24T07:09:56;18.48;;;11.01;;
74788;SDS011;63313;48.258;12.518;2023-08-24T07:15:23;15.0;;;10.3;;
74788;SDS011;63313;48.258;12.518;2023-08-24T07:20:51;13.8;;;8.810000000000002;;
74788;SDS011;63313;48.258;12.518;2023-08-24T07:26:18;10.599999999999998;;;7.109999999999999;;
74788;SDS011;63313;48.258;12.518;2023-08-24T07:31:45;13.65;;;8.309999999999999;;
74788;SDS011;63313;48.258;12.518;2023-08-24T07:37:12;14.649999999999997;;;8.98;;
74788;SDS011;63313;48.258;12.518;2023-08-24T07:42:42;11.68;;;8.42;;
74788;SDS011;63313;48.258;12.518;2023-08-24T07:48:10;14.01;;;9.43;;
74788;SDS011;63313;48.258;12.518;2023-08-24T07:53:37;14.579999999999998;;;9.82;;
74788;SDS011;63313;48.258;12.518;2023-08-24T07:59:04;15.670000000000002;;;8.53;;
74788;SDS011;63313;48.258;12.518;2023-08-24T08:04:31;13.830000000000002;;;10.080000000000002;;
74788;SDS011;63313;48.258;12.518;2023-08-24T08:09:58;20.509999999999998;;;9.319999999999999;;
74788;SDS011;63313;48.258;12.518;2023-08-24T08:15:25;16.249999999999996;;;9.620000000000001;;
74788;SDS011;63313;48.258;12.518;2023-08-24T08:20:52;13.710000000000003;;;8.790000000000001;;
74788;SDS011;63313;48.258;12.518;2023-08-24T08:26:20;9.77;;;7.88;;
74788;SDS011;63313;48.258;12.518;2023-08-24T08:31:47;15.040000000000001;;;7.919999999999999;;
74788;SDS011;63313;48.258;12.518;2023-08-24T08:37:14;12.53;;;7.45;;
74788;SDS011;63313;48.258;12.518;2023-08-24T08:42:41;15.560000000000002;;;7.92;;
74788;SDS011;63313;48.258;12.518;2023-08-24T08:48:08;13.329999999999998;;;9.729999999999999;;
74788;SDS011;63313;48.258;12.518;2023-08-24T08:53:35;10.11;;;7.63;;
74788;SDS011;63313;48.258;12.518;2023-08-24T08:59:03;14.35;;;8.28;;
74788;SDS011;63313;48.258;12.518;2023-08-24T09:04:32;9.55;;;6.839999999999999;;
74788;SDS011;63313;48.258;12.518;2023-08-24T09:10:00;12.690000000000001;;;7.659999999999999;;
74788;SDS011;63313;48.258;12.518;2023-08-24T09:15:27;13.739999999999998;;;6.9799999999999995;;
74788;SDS011;63313;48.258;12.518;2023-08-24T09:20:54;10.28;;;7.710000000000001;;
74788;SDS011;63313;48.258;12.518;2023-08-24T09:26:27;8.250000000000002;;;6.9;;
74788;SDS011;63313;48.258;12.518;2023-08-24T09:31:54;8.920000000000002;;;6.959999999999999;;
74788;SDS011;63313;48.258;12.518;2023-08-24T09:37:21;8.74;;;6.709999999999999;;
74788;SDS011;63313;48.258;12.518;2023-08-24T09:42:48;10.149999999999999;;;6.69;;
74788;SDS011;63313;48.258;12.518;2023-08-24T09:48:15;13.189999999999998;;;6.890000000000001;;
74788;SDS011;63313;48.258;12.518;2023-08-24T09:53:42;11.419999999999998;;;6.43;;
74788;SDS011;63313;48.258;12.518;2023-08-24T09:59:11;8.52;;;6.39;;
74788;SDS011;63313;48.258;12.518;2023-08-24T10:04:38;10.91;;;5.82;;
74788;SDS011;63313;48.258;12.518;2023-08-24T10:10:07;11.75;;;5.8999999999999995;;
74788;SDS011;63313;48.258;12.518;2023-08-24T10:15:36;7.290000000000001;;;5.65;;
74788;SDS011;63313;48.258;12.518;2023-08-24T10:21:04;8.74;;;5.489999999999999;;
74788;SDS011;63313;48.258;12.518;2023-08-24T10:26:32;8.209999999999999;;;5.619999999999999;;
74788;SDS011;63313;48.258;12.518;2023-08-24T10:31:59;12.84;;;6.51;;
74788;SDS011;63313;48.258;12.518;2023-08-24T10:37:26;9.35;;;5.95;;
74788;SDS011;63313;48.258;12.518;2023-08-24T10:42:54;7.349999999999999;;;5.88;;
74788;SDS011;63313;48.258;12.518;2023-08-24T10:48:22;8.08;;;6.05;;
74788;SDS011;63313;48.258;12.518;2023-08-24T10:53:51;11.08;;;6.05;;
74788;SDS011;63313;48.258;12.518;2023-08-24T10:59:19;9.05;;;5.83;;
74788;SDS011;63313;48.258;12.518;2023-08-24T11:05:03;7.090000000000001;;;5.56;;
74788;SDS011;63313;48.258;12.518;2023-08-24T11:10:31;11.35;;;6.01;;
74788;SDS011;63313;48.258;12.518;2023-08-24T11:15:58;7.43;;;5.22;;
74788;SDS011;63313;48.258;12.518;2023-08-24T11:21:25;9.23;;;5.93;;
74788;SDS011;63313;48.258;12.518;2023-08-24T11:26:53;8.21;;;5.699999999999999;;
74788;SDS011;63313;48.258;12.518;2023-08-24T11:32:20;12.430000000000001;;;5.700000000000001;;
74788;SDS011;63313;48.258;12.518;2023-08-24T11:37:50;7.630000000000001;;;5.21;;
74788;SDS011;63313;48.258;12.518;2023-08-24T11:43:23;5.0;;;4.390000000000001;;
74788;SDS011;63313;48.258;12.518;2023-08-24T11:48:50;8.05;;;5.25;;
74788;SDS011;63313;48.258;12.518;2023-08-24T11:54:18;6.38;;;5.069999999999999;;
74788;SDS011;63313;48.258;12.518;2023-08-24T11:59:45;8.7;;;4.239999999999999;;
74788;SDS011;63313;48.258;12.518;2023-08-24T12:05:24;6.95;;;4.57;;
74788;SDS011;63313;48.258;12.518;2023-08-24T12:10:51;8.780000000000001;;;3.97;;
74788;SDS011;63313;48.258;12.518;2023-08-24T12:16:19;4.98;;;3.94;;
74788;SDS011;63313;48.258;12.518;2023-08-24T12:21:49;6.92;;;3.91;;
74788;SDS011;63313;48.258;12.518;2023-08-24T12:27:17;12.440000000000001;;;3.8000000000000007;;
74788;SDS011;63313;48.258;12.518;2023-08-24T12:32:44;6.9;;;3.9800000000000004;;
74788;SDS011;63313;48.258;12.518;2023-08-24T12:38:12;4.7700000000000005;;;4.29;;
74788;SDS011;63313;48.258;12.518;2023-08-24T12:43:39;7.2700000000000005;;;4.15;;
74788;SDS011;63313;48.258;12.518;2023-08-24T12:49:06;5.98;;;4.1;;
74788;SDS011;63313;48.258;12.518;2023-08-24T12:54:33;6.39;;;4.7299999999999995;;
74788;SDS011;63313;48.258;12.518;2023-08-24T13:00:01;8.059999999999999;;;4.92;;
74788;SDS011;63313;48.258;12.518;2023-08-24T13:05:28;6.38;;;4.589999999999999;;
74788;SDS011;63313;48.258;12.518;2023-08-24T13:10:55;9.440000000000001;;;4.97;;
74788;SDS011;63313;48.258;12.518;2023-08-24T13:16:22;11.5;;;4.68;;
74788;SDS011;63313;48.258;12.518;2023-08-24T13:21:49;8.25;;;4.2299999999999995;;
74788;SDS011;63313;48.258;12.518;2023-08-24T13:27:16;10.940000000000001;;;4.75;;
74788;SDS011;63313;48.258;12.518;2023-08-24T13:32:43;7.139999999999999;;;4.140000000000001;;
74788;SDS011;63313;48.258;12.518;2023-08-24T13:38:11;4.68;;;4.1;;
74788;SDS011;63313;48.258;12.518;2023-08-24T13:43:38;9.42;;;5.11;;
74788;SDS011;63313;48.258;12.518;2023-08-24T13:49:05;6.9;;;4.530000000000001;;
74788;SDS011;63313;48.258;12.518;2023-08-24T13:54:32;7.089999999999999;;;4.4;;
74788;SDS011;63313;48.258;12.518;2023-08-24T13:59:59;5.53;;;4.04;;
74788;SDS011;63313;48.258;12.518;2023-08-24T14:05:26;7.160000000000001;;;4.36;;
74788;SDS011;63313;48.258;12.518;2023-08-24T14:10:53;4.510000000000001;;;4.090000000000001;;
74788;SDS011;63313;48.258;12.518;2023-08-24T14:16:21;7.45;;;4.08;;
74788;SDS011;63313;48.258;12.518;2023-08-24T14:21:48;6.32;;;4.180000000000001;;
74788;SDS011;63313;48.258;12.518;2023-08-24T14:27:15;4.88;;;4.08;;
74788;SDS011;63313;48.258;12.518;2023-08-24T14:32:42;7.220000000000001;;;4.209999999999999;;
74788;SDS011;63313;48.258;12.518;2023-08-24T14:38:09;7.65;;;4.2299999999999995;;
74788;SDS011;63313;48.258;12.518;2023-08-24T14:43:36;6.909999999999999;;;4.430000000000001;;
74788;SDS011;63313;48.258;12.518;2023-08-24T14:49:03;12.2;;;4.630000000000001;;
74788;SDS011;63313;48.258;12.518;2023-08-24T14:54:31;8.040000000000001;;;4.640000000000001;;
74788;SDS011;63313;48.258;12.518;2023-08-24T14:59:58;7.970000000000001;;;4.930000000000001;;
74788;SDS011;63313;48.258;12.518;2023-08-24T15:05:25;5.6899999999999995;;;4.25;;
74788;SDS011;63313;48.258;12.518;2023-08-24T15:10:54;9.020000000000001;;;4.58;;
74788;SDS011;63313;48.258;12.518;2023-08-24T15:16:21;9.040000000000001;;;4.589999999999999;;
74788;SDS011;63313;48.258;12.518;2023-08-24T15:21:48;8.120000000000001;;;4.46;;
74788;SDS011;63313;48.258;12.518;2023-08-24T15:27:15;7.42;;;4.340000000000001;;
74788;SDS011;63313;48.258;12.518;2023-08-24T15:32:42;7.260000000000001;;;4.55;;
74788;SDS011;63313;48.258;12.518;2023-08-24T15:38:10;6.409999999999999;;;4.92;;
74788;SDS011;63313;48.258;12.518;2023-08-24T15:43:37;8.35;;;4.840000000000001;;
74788;SDS011;63313;48.258;12.518;2023-08-24T15:49:04;7.209999999999999;;;4.8;;
74788;SDS011;63313;48.258;12.518;2023-08-24T15:54:31;9.59;;;5.14;;
74788;SDS011;63313;48.258;12.518;2023-08-24T15:59:58;7.230000000000001;;;5.22;;
74788;SDS011;63313;48.258;12.518;2023-08-24T16:05:25;6.88;;;4.78;;
74788;SDS011;63313;48.258;12.518;2023-08-24T16:10:55;10.139999999999997;;;5.3;;
74788;SDS011;63313;48.258;12.518;2023-08-24T16:16:22;8.24;;;5.199999999999999;;
74788;SDS011;63313;48.258;12.518;2023-08-24T16:21:49;7.959999999999999;;;4.9;;
74788;SDS011;63313;48.258;12.518;2023-08-24T16:27:16;7.57;;;5.630000000000001;;
74788;SDS011;63313;48.258;12.518;2023-08-24T16:32:44;14.61;;;5.9;;
74788;SDS011;63313;48.258;12.518;2023-08-24T16:38:11;14.960000000000003;;;5.79;;
74788;SDS011;63313;48.258;12.518;2023-08-24T16:43:38;10.76;;;5.69;;
74788;SDS011;63313;48.258;12.518;2023-08-24T16:49:05;7.25;;;5.37;;
74788;SDS011;63313;48.258;12.518;2023-08-24T16:54:32;8.1;;;5.6;;
74788;SDS011;63313;48.258;12.518;2023-08-24T16:59:59;7.76;;;5.720000000000001;;
74788;SDS011;63313;48.258;12.518;2023-08-24T17:05:26;11.1;;;6.0;;
74788;SDS011;63313;48.258;12.518;2023-08-24T17:10:54;11.38;;;5.7700000000000005;;
74788;SDS011;63313;48.258;12.518;2023-08-24T17:16:21;10.04;;;5.62;;
74788;SDS011;63313;48.258;12.518;2023-08-24T17:21:48;22.18;;;14.0;;
74788;SDS011;63313;48.258;12.518;2023-08-24T17:27:15;10.900000000000002;;;6.55;;
74788;SDS011;63313;48.258;12.518;2023-08-24T17:32:42;7.5;;;5.8;;
74788;SDS011;63313;48.258;12.518;2023-08-24T17:38:10;6.55;;;5.76;;
74788;SDS011;63313;48.258;12.518;2023-08-24T17:43:37;7.760000000000001;;;6.359999999999999;;
74788;SDS011;63313;48.258;12.518;2023-08-24T17:49:04;8.97;;;6.99;;
74788;SDS011;63313;48.258;12.518;2023-08-24T17:54:31;15.02;;;7.92;;
74788;SDS011;63313;48.258;12.518;2023-08-24T17:59:58;8.59;;;6.88;;
74788;SDS011;63313;48.258;12.518;2023-08-24T18:05:25;11.659999999999998;;;6.37;;
74788;SDS011;63313;48.258;12.518;2023-08-24T18:10:55;8.879999999999999;;;5.999999999999999;;
74788;SDS011;63313;48.258;12.518;2023-08-24T18:16:27;10.37;;;5.869999999999999;;
74788;SDS011;63313;48.258;12.518;2023-08-24T18:21:54;9.66;;;6.38;;
74788;SDS011;63313;48.258;12.518;2023-08-24T18:27:21;9.639999999999999;;;6.14;;
74788;SDS011;63313;48.258;12.518;2023-08-24T18:32:48;17.07;;;6.31;;
74788;SDS011;63313;48.258;12.518;2023-08-24T18:38:15;10.42;;;6.16;;
74788;SDS011;63313;48.258;12.518;2023-08-24T18:43:42;9.4;;;5.859999999999999;;
74788;SDS011;63313;48.258;12.518;2023-08-24T18:49:09;9.27;;;6.23;;
74788;SDS011;63313;48.258;12.518;2023-08-24T18:54:37;13.179999999999998;;;6.369999999999999;;
74788;SDS011;63313;48.258;12.518;2023-08-24T19:00:04;11.69;;;6.95;;
74788;SDS011;63313;48.258;12.518;2023-08-24T19:05:32;16.32;;;8.059999999999999;;
74788;SDS011;63313;48.258;12.518;2023-08-24T19:10:59;12.309999999999999;;;6.889999999999999;;
74788;SDS011;63313;48.258;12.518;2023-08-24T19:16:26;10.169999999999998;;;6.6;;
74788;SDS011;63313;48.258;12.518;2023-08-24T19:21:53;9.59;;;6.38;;
74788;SDS011;63313;48.258;12.518;2023-08-24T19:27:20;7.729999999999999;;;6.51;;
74788;SDS011;63313;48.258;12.518;2023-08-24T19:32:47;14.61;;;7.17;;
74788;SDS011;63313;48.258;12.518;2023-08-24T19:38:15;11.02;;;6.9799999999999995;;
74788;SDS011;63313;48.258;12.518;2023-08-24T19:43:42;10.069999999999999;;;6.369999999999999;;
74788;SDS011;63313;48.258;12.518;2023-08-24T19:49:09;10.36;;;6.33;;
74788;SDS011;63313;48.258;12.518;2023-08-24T19:54:36;12.89;;;6.69;;
74788;SDS011;63313;48.258;12.518;2023-08-24T20:00:04;9.16;;;7.159999999999999;;
74788;SDS011;63313;48.258;12.518;2023-08-24T20:05:33;10.370000000000001;;;6.6;;
74788;SDS011;63313;48.258;12.518;2023-08-24T20:11:00;13.669999999999998;;;7.3100000000000005;;
74788;SDS011;63313;48.258;12.518;2023-08-24T20:16:27;9.89;;;7.370000000000002;;
74788;SDS011;63313;48.258;12.518;2023-08-24T20:21:54;11.059999999999999;;;7.380000000000001;;
74788;SDS011;63313;48.258;12.518;2023-08-24T20:27:21;10.48;;;7.090000000000001;;
74788;SDS011;63313;48.258;12.518;2023-08-24T20:32:48;10.14;;;7.580000000000001;;
74788;SDS011;63313;48.258;12.518;2023-08-24T20:38:15;8.92;;;7.35;;
74788;SDS011;63313;48.258;12.518;2023-08-24T20:43:42;14.51;;;7.69;;
74788;SDS011;63313;48.258;12.518;2023-08-24T20:49:09;9.05;;;7.340000000000001;;
74788;SDS011;63313;48.258;12.518;2023-08-24T20:54:37;9.229999999999999;;;7.279999999999999;;
74788;SDS011;63313;48.258;12.518;2023-08-24T21:00:04;15.24;;;7.99;;
74788;SDS011;63313;48.258;12.518;2023-08-24T21:05:32;12.1;;;8.5;;
74788;SDS011;63313;48.258;12.518;2023-08-24T21:10:59;13.419999999999998;;;7.7700000000000005;;
74788;SDS011;63313;48.258;12.518;2023-08-24T21:16:26;10.370000000000001;;;7.909999999999999;;
74788;SDS011;63313;48.258;12.518;2023-08-24T21:21:53;18.24;;;5.91;;
74788;SDS011;63313;48.258;12.518;2023-08-24T21:27:20;29.480000000000008;;;2.7199999999999998;;
74788;SDS011;63313;48.258;12.518;2023-08-24T21:32:47;4.2299999999999995;;;1.72;;
74788;SDS011;63313;48.258;12.518;2023-08-24T21:38:14;10.430000000000001;;;2.33;;
74788;SDS011;63313;48.258;12.518;2023-08-24T21:43:41;16.91;;;3.11;;
74788;SDS011;63313;48.258;12.518;2023-08-24T21:49:08;10.09;;;2.63;;
74788;SDS011;63313;48.258;12.518;2023-08-24T21:54:36;10.78;;;2.62;;
74788;SDS011;63313;48.258;12.518;2023-08-24T22:00:03;8.22;;;2.1400000000000006;;
74788;SDS011;63313;48.258;12.518;2023-08-24T22:05:30;5.279999999999999;;;1.73;;
74788;SDS011;63313;48.258;12.518;2023-08-24T22:10:58;4.8;;;1.86;;
74788;SDS011;63313;48.258;12.518;2023-08-24T22:16:26;5.82;;;1.8599999999999999;;
74788;SDS011;63313;48.258;12.518;2023-08-24T22:21:53;4.72;;;1.9100000000000001;;
74788;SDS011;63313;48.258;12.518;2023-08-24T22:27:20;3.46;;;1.9;;
74788;SDS011;63313;48.258;12.518;2023-08-24T22:32:47;7.080000000000001;;;2.25;;
74788;SDS011;63313;48.258;12.518;2023-08-24T22:38:14;6.029999999999999;;;2.25;;
74788;SDS011;63313;48.258;12.518;2023-08-24T22:43:41;5.79;;;2.1;;
74788;SDS011;63313;48.258;12.518;2023-08-24T22:49:08;7.709999999999999;;;2.29;;
74788;SDS011;63313;48.258;12.518;2023-08-24T22:54:36;7.220000000000001;;;2.6100000000000003;;
74788;SDS011;63313;48.258;12.518;2023-08-24T23:00:03;5.18;;;2.31;;
74788;SDS011;63313;48.258;12.518;2023-08-24T23:05:30;8.129999999999999;;;2.9800000000000004;;
74788;SDS011;63313;48.258;12.518;2023-08-24T23:10:57;5.0600000000000005;;;2.1199999999999997;;
74788;SDS011;63313;48.258;12.518;2023-08-24T23:16:24;5.760000000000001;;;2.5;;
74788;SDS011;63313;48.258;12.518;2023-08-24T23:21:52;12.41;;;3.1800000000000006;;
74788;SDS011;63313;48.258;12.518;2023-08-24T23:27:19;8.52;;;2.8899999999999997;;
74788;SDS011;63313;48.258;12.518;2023-08-24T23:32:46;8.84;;;2.54;;
74788;SDS011;63313;48.258;12.518;2023-08-24T23:38:13;11.069999999999999;;;2.88;;
74788;SDS011;63313;48.258;12.518;2023-08-24T23:43:40;5.96;;;2.5300000000000002;;
74788;SDS011;63313;48.258;12.518;2023-08-24T23:49:07;7.750000000000002;;;2.7299999999999995;;
74788;SDS011;63313;48.258;12.518;2023-08-24T23:54:34;10.28;;;3.21;;
